sensor_id;sensor_type;location;lat;lon;timestamp;temperature;humidity
22532;DHT22;11432;46.924;7.114;2023-07-28T00:00:57;19.40;99.90
22532;DHT22;11432;46.924;7.114;2023-07-28T00:03:22;19.40;1.00
22532;DHT22;11432;46.924;7.114;2023-07-28T00:05:49;19.40;1.00
22532;DHT22;11432;46.924;7.114;2023-07-28T00:08:14;19.40;54.00
22532;DHT22;11432;46.924;7.114;2023-07-28T00:10:43;19.40;1.00
22532;DHT22;11432;46.924;7.114;2023-07-28T00:13:09;19.40;99.90
22532;DHT22;11432;46.924;7.114;2023-07-28T00:15:35;19.40;1.00
22532;DHT22;11432;46.924;7.114;2023-07-28T00:18:00;19.40;11.60
22532;DHT22;11432;46.924;7.114;2023-07-28T00:20:27;19.40;99.90
22532;DHT22;11432;46.924;7.114;2023-07-28T00:22:53;19.30;18.20
22532;DHT22;11432;46.924;7.114;2023-07-28T00:25:19;19.40;99.90
22532;DHT22;11432;46.924;7.114;2023-07-28T00:27:44;19.40;99.90
22532;DHT22;11432;46.924;7.114;2023-07-28T00:30:11;19.40;1.00
22532;DHT22;11432;46.924;7.114;2023-07-28T00:32:36;19.40;1.00
22532;DHT22;11432;46.924;7.114;2023-07-28T00:35:02;19.40;1.00
22532;DHT22;11432;46.924;7.114;2023-07-28T00:37:28;19.40;1.00
22532;DHT22;11432;46.924;7.114;2023-07-28T00:39:54;19.50;99.90
22532;DHT22;11432;46.924;7.114;2023-07-28T00:42:19;19.50;1.00
22532;DHT22;11432;46.924;7.114;2023-07-28T00:44:45;19.50;99.90
22532;DHT22;11432;46.924;7.114;2023-07-28T00:47:11;19.40;99.90
22532;DHT22;11432;46.924;7.114;2023-07-28T00:49:38;19.40;99.90
22532;DHT22;11432;46.924;7.114;2023-07-28T00:52:08;19.50;1.00
22532;DHT22;11432;46.924;7.114;2023-07-28T00:54:35;19.40;17.50
22532;DHT22;11432;46.924;7.114;2023-07-28T00:57:01;19.40;1.00
22532;DHT22;11432;46.924;7.114;2023-07-28T00:59:27;19.30;1.00
22532;DHT22;11432;46.924;7.114;2023-07-28T01:01:53;19.30;61.60
22532;DHT22;11432;46.924;7.114;2023-07-28T01:04:18;19.30;99.90
22532;DHT22;11432;46.924;7.114;2023-07-28T01:09:13;19.20;1.00
22532;DHT22;11432;46.924;7.114;2023-07-28T01:11:55;19.10;1.00
22532;DHT22;11432;46.924;7.114;2023-07-28T01:14:21;19.00;1.00
22532;DHT22;11432;46.924;7.114;2023-07-28T01:16:47;18.90;88.00
22532;DHT22;11432;46.924;7.114;2023-07-28T01:19:17;18.80;99.90
22532;DHT22;11432;46.924;7.114;2023-07-28T01:21:50;18.70;99.90
22532;DHT22;11432;46.924;7.114;2023-07-28T01:24:44;18.70;99.90
22532;DHT22;11432;46.924;7.114;2023-07-28T01:27:15;18.70;99.90
22532;DHT22;11432;46.924;7.114;2023-07-28T01:29:41;18.70;1.00
22532;DHT22;11432;46.924;7.114;2023-07-28T01:32:06;18.70;1.00
22532;DHT22;11432;46.924;7.114;2023-07-28T01:34:32;18.60;1.00
22532;DHT22;11432;46.924;7.114;2023-07-28T01:36:58;18.50;26.70
22532;DHT22;11432;46.924;7.114;2023-07-28T01:39:23;18.50;99.90
22532;DHT22;11432;46.924;7.114;2023-07-28T01:41:49;18.60;99.90
22532;DHT22;11432;46.924;7.114;2023-07-28T01:44:15;18.60;1.00
22532;DHT22;11432;46.924;7.114;2023-07-28T01:46:40;18.60;99.90
22532;DHT22;11432;46.924;7.114;2023-07-28T01:49:06;18.70;99.90
22532;DHT22;11432;46.924;7.114;2023-07-28T01:51:31;18.70;99.90
22532;DHT22;11432;46.924;7.114;2023-07-28T01:53:57;18.60;1.00
22532;DHT22;11432;46.924;7.114;2023-07-28T01:56:22;18.60;1.00
22532;DHT22;11432;46.924;7.114;2023-07-28T01:58:48;18.60;99.90
22532;DHT22;11432;46.924;7.114;2023-07-28T02:01:13;18.70;99.90
22532;DHT22;11432;46.924;7.114;2023-07-28T02:03:39;18.70;1.00
22532;DHT22;11432;46.924;7.114;2023-07-28T02:06:05;18.70;1.00
22532;DHT22;11432;46.924;7.114;2023-07-28T02:08:30;18.60;1.00
22532;DHT22;11432;46.924;7.114;2023-07-28T02:10:56;18.50;1.00
22532;DHT22;11432;46.924;7.114;2023-07-28T02:13:21;18.40;99.90
22532;DHT22;11432;46.924;7.114;2023-07-28T02:15:47;18.40;99.90
22532;DHT22;11432;46.924;7.114;2023-07-28T02:18:13;18.30;1.00
22532;DHT22;11432;46.924;7.114;2023-07-28T02:20:39;18.30;1.00
22532;DHT22;11432;46.924;7.114;2023-07-28T02:23:04;18.30;99.90
22532;DHT22;11432;46.924;7.114;2023-07-28T02:25:30;18.40;99.90
22532;DHT22;11432;46.924;7.114;2023-07-28T02:27:56;18.40;99.90
22532;DHT22;11432;46.924;7.114;2023-07-28T02:30:21;18.50;99.90
22532;DHT22;11432;46.924;7.114;2023-07-28T02:32:47;18.50;1.00
22532;DHT22;11432;46.924;7.114;2023-07-28T02:35:12;18.50;1.00
22532;DHT22;11432;46.924;7.114;2023-07-28T02:37:38;18.50;16.80
22532;DHT22;11432;46.924;7.114;2023-07-28T02:40:04;18.40;99.90
22532;DHT22;11432;46.924;7.114;2023-07-28T02:42:30;18.40;99.90
22532;DHT22;11432;46.924;7.114;2023-07-28T02:44:56;18.50;99.90
22532;DHT22;11432;46.924;7.114;2023-07-28T02:47:21;18.50;1.00
22532;DHT22;11432;46.924;7.114;2023-07-28T02:49:47;18.60;1.00
22532;DHT22;11432;46.924;7.114;2023-07-28T02:52:13;18.60;1.00
22532;DHT22;11432;46.924;7.114;2023-07-28T02:54:38;18.60;1.00
22532;DHT22;11432;46.924;7.114;2023-07-28T02:57:04;18.70;1.00
22532;DHT22;11432;46.924;7.114;2023-07-28T02:59:30;18.80;99.90
22532;DHT22;11432;46.924;7.114;2023-07-28T03:01:55;18.80;99.90
22532;DHT22;11432;46.924;7.114;2023-07-28T03:04:22;18.90;99.90
22532;DHT22;11432;46.924;7.114;2023-07-28T03:06:48;19.00;96.40
22532;DHT22;11432;46.924;7.114;2023-07-28T03:09:14;19.00;99.90
22532;DHT22;11432;46.924;7.114;2023-07-28T03:11:44;19.00;99.90
22532;DHT22;11432;46.924;7.114;2023-07-28T03:14:09;19.00;99.90
22532;DHT22;11432;46.924;7.114;2023-07-28T03:16:35;19.00;99.90
22532;DHT22;11432;46.924;7.114;2023-07-28T03:19:01;19.00;93.60
22532;DHT22;11432;46.924;7.114;2023-07-28T03:21:30;19.10;99.90
22532;DHT22;11432;46.924;7.114;2023-07-28T03:23:56;19.20;99.90
22532;DHT22;11432;46.924;7.114;2023-07-28T03:26:22;19.20;71.10
22532;DHT22;11432;46.924;7.114;2023-07-28T03:28:47;19.30;76.30
22532;DHT22;11432;46.924;7.114;2023-07-28T03:31:13;19.50;13.80
22532;DHT22;11432;46.924;7.114;2023-07-28T03:33:38;19.50;58.20
22532;DHT22;11432;46.924;7.114;2023-07-28T03:36:04;19.60;1.00
22532;DHT22;11432;46.924;7.114;2023-07-28T03:38:29;19.70;1.00
22532;DHT22;11432;46.924;7.114;2023-07-28T03:40:55;19.70;3.80
22532;DHT22;11432;46.924;7.114;2023-07-28T03:43:21;19.70;99.90
22532;DHT22;11432;46.924;7.114;2023-07-28T03:45:47;19.70;1.00
22532;DHT22;11432;46.924;7.114;2023-07-28T03:48:13;19.80;1.00
22532;DHT22;11432;46.924;7.114;2023-07-28T03:50:38;19.80;24.90
22532;DHT22;11432;46.924;7.114;2023-07-28T03:53:04;19.80;1.00
22532;DHT22;11432;46.924;7.114;2023-07-28T03:55:29;19.90;27.80
22532;DHT22;11432;46.924;7.114;2023-07-28T03:57:55;19.80;1.00
22532;DHT22;11432;46.924;7.114;2023-07-28T04:00:20;19.90;1.00
22532;DHT22;11432;46.924;7.114;2023-07-28T04:02:46;19.90;1.00
22532;DHT22;11432;46.924;7.114;2023-07-28T04:05:12;20.00;1.00
22532;DHT22;11432;46.924;7.114;2023-07-28T04:07:37;20.00;1.00
22532;DHT22;11432;46.924;7.114;2023-07-28T04:10:04;20.10;1.00
22532;DHT22;11432;46.924;7.114;2023-07-28T04:12:30;20.30;1.00
22532;DHT22;11432;46.924;7.114;2023-07-28T04:14:55;20.40;1.00
22532;DHT22;11432;46.924;7.114;2023-07-28T04:17:21;20.60;1.00
22532;DHT22;11432;46.924;7.114;2023-07-28T04:19:46;20.60;99.90
22532;DHT22;11432;46.924;7.114;2023-07-28T04:22:12;20.70;99.90
22532;DHT22;11432;46.924;7.114;2023-07-28T04:24:38;20.70;99.90
22532;DHT22;11432;46.924;7.114;2023-07-28T04:27:04;20.70;99.90
22532;DHT22;11432;46.924;7.114;2023-07-28T04:29:30;20.70;99.90
22532;DHT22;11432;46.924;7.114;2023-07-28T04:31:56;20.80;99.90
22532;DHT22;11432;46.924;7.114;2023-07-28T04:34:21;20.80;85.20
22532;DHT22;11432;46.924;7.114;2023-07-28T04:36:47;20.90;17.70
22532;DHT22;11432;46.924;7.114;2023-07-28T04:39:12;20.90;28.00
22532;DHT22;11432;46.924;7.114;2023-07-28T04:41:38;20.80;99.90
22532;DHT22;11432;46.924;7.114;2023-07-28T04:44:04;20.70;92.80
22532;DHT22;11432;46.924;7.114;2023-07-28T04:46:30;20.70;99.90
22532;DHT22;11432;46.924;7.114;2023-07-28T04:48:57;20.60;99.90
22532;DHT22;11432;46.924;7.114;2023-07-28T04:51:22;20.60;56.80
22532;DHT22;11432;46.924;7.114;2023-07-28T04:53:48;20.50;99.90
22532;DHT22;11432;46.924;7.114;2023-07-28T04:56:13;20.50;99.90
22532;DHT22;11432;46.924;7.114;2023-07-28T04:58:39;20.60;64.50
22532;DHT22;11432;46.924;7.114;2023-07-28T05:01:04;20.60;99.90
22532;DHT22;11432;46.924;7.114;2023-07-28T05:03:30;20.70;99.90
22532;DHT22;11432;46.924;7.114;2023-07-28T05:05:56;20.70;99.90
22532;DHT22;11432;46.924;7.114;2023-07-28T05:08:22;20.70;99.90
22532;DHT22;11432;46.924;7.114;2023-07-28T05:10:47;20.70;99.90
22532;DHT22;11432;46.924;7.114;2023-07-28T05:13:13;20.60;99.90
22532;DHT22;11432;46.924;7.114;2023-07-28T05:15:38;20.60;99.90
22532;DHT22;11432;46.924;7.114;2023-07-28T05:18:04;20.60;99.90
22532;DHT22;11432;46.924;7.114;2023-07-28T05:20:30;20.60;99.90
22532;DHT22;11432;46.924;7.114;2023-07-28T05:22:56;20.50;99.90
22532;DHT22;11432;46.924;7.114;2023-07-28T05:25:21;20.50;99.90
22532;DHT22;11432;46.924;7.114;2023-07-28T05:27:47;20.40;1.00
22532;DHT22;11432;46.924;7.114;2023-07-28T05:30:13;20.40;1.00
22532;DHT22;11432;46.924;7.114;2023-07-28T05:32:38;20.50;1.00
22532;DHT22;11432;46.924;7.114;2023-07-28T05:35:04;20.50;1.00
22532;DHT22;11432;46.924;7.114;2023-07-28T05:37:30;20.60;1.00
22532;DHT22;11432;46.924;7.114;2023-07-28T05:39:56;20.50;1.00
22532;DHT22;11432;46.924;7.114;2023-07-28T05:42:21;20.50;1.00
22532;DHT22;11432;46.924;7.114;2023-07-28T05:44:47;20.50;1.00
22532;DHT22;11432;46.924;7.114;2023-07-28T05:47:13;20.50;1.00
22532;DHT22;11432;46.924;7.114;2023-07-28T05:49:38;20.50;1.00
22532;DHT22;11432;46.924;7.114;2023-07-28T05:52:04;20.50;1.00
22532;DHT22;11432;46.924;7.114;2023-07-28T05:54:30;20.60;1.00
22532;DHT22;11432;46.924;7.114;2023-07-28T05:56:55;20.70;1.00
22532;DHT22;11432;46.924;7.114;2023-07-28T05:59:21;20.70;1.00
22532;DHT22;11432;46.924;7.114;2023-07-28T06:01:46;20.80;1.00
22532;DHT22;11432;46.924;7.114;2023-07-28T06:04:42;21.00;1.00
22532;DHT22;11432;46.924;7.114;2023-07-28T06:07:09;21.00;1.00
22532;DHT22;11432;46.924;7.114;2023-07-28T06:09:34;21.10;1.00
22532;DHT22;11432;46.924;7.114;2023-07-28T06:12:00;21.20;1.00
22532;DHT22;11432;46.924;7.114;2023-07-28T06:14:26;21.30;1.00
22532;DHT22;11432;46.924;7.114;2023-07-28T06:16:51;21.30;1.00
22532;DHT22;11432;46.924;7.114;2023-07-28T06:19:17;21.20;1.00
22532;DHT22;11432;46.924;7.114;2023-07-28T06:21:49;21.20;1.00
22532;DHT22;11432;46.924;7.114;2023-07-28T06:24:16;21.30;1.00
22532;DHT22;11432;46.924;7.114;2023-07-28T06:26:42;21.20;1.00
22532;DHT22;11432;46.924;7.114;2023-07-28T06:29:07;21.30;8.30
22532;DHT22;11432;46.924;7.114;2023-07-28T06:31:33;21.30;20.60
22532;DHT22;11432;46.924;7.114;2023-07-28T06:33:58;21.40;1.00
22532;DHT22;11432;46.924;7.114;2023-07-28T06:36:24;21.50;99.90
22532;DHT22;11432;46.924;7.114;2023-07-28T06:38:50;21.60;1.00
22532;DHT22;11432;46.924;7.114;2023-07-28T06:41:17;21.60;1.00
22532;DHT22;11432;46.924;7.114;2023-07-28T06:43:43;21.70;1.00
22532;DHT22;11432;46.924;7.114;2023-07-28T06:46:08;21.90;1.00
22532;DHT22;11432;46.924;7.114;2023-07-28T06:48:34;22.10;1.00
22532;DHT22;11432;46.924;7.114;2023-07-28T06:51:00;22.20;1.00
22532;DHT22;11432;46.924;7.114;2023-07-28T06:53:26;22.30;99.90
22532;DHT22;11432;46.924;7.114;2023-07-28T06:55:51;22.50;99.90
22532;DHT22;11432;46.924;7.114;2023-07-28T06:58:17;22.70;70.40
22532;DHT22;11432;46.924;7.114;2023-07-28T07:00:42;22.80;1.00
22532;DHT22;11432;46.924;7.114;2023-07-28T07:03:09;22.90;1.00
22532;DHT22;11432;46.924;7.114;2023-07-28T07:05:35;23.10;1.00
22532;DHT22;11432;46.924;7.114;2023-07-28T07:08:01;23.10;1.00
22532;DHT22;11432;46.924;7.114;2023-07-28T07:10:27;23.30;1.00
22532;DHT22;11432;46.924;7.114;2023-07-28T07:12:52;23.30;1.00
22532;DHT22;11432;46.924;7.114;2023-07-28T07:15:18;23.40;99.90
22532;DHT22;11432;46.924;7.114;2023-07-28T07:17:43;23.40;1.00
22532;DHT22;11432;46.924;7.114;2023-07-28T07:20:09;23.50;1.00
22532;DHT22;11432;46.924;7.114;2023-07-28T07:22:36;23.50;99.90
22532;DHT22;11432;46.924;7.114;2023-07-28T07:25:03;23.50;99.90
22532;DHT22;11432;46.924;7.114;2023-07-28T07:27:29;23.50;99.90
22532;DHT22;11432;46.924;7.114;2023-07-28T07:29:55;23.40;99.90
22532;DHT22;11432;46.924;7.114;2023-07-28T07:32:20;23.50;1.00
22532;DHT22;11432;46.924;7.114;2023-07-28T07:34:46;23.60;1.00
22532;DHT22;11432;46.924;7.114;2023-07-28T07:37:12;23.60;1.00
22532;DHT22;11432;46.924;7.114;2023-07-28T07:39:38;23.80;1.00
22532;DHT22;11432;46.924;7.114;2023-07-28T07:42:06;23.80;1.00
22532;DHT22;11432;46.924;7.114;2023-07-28T07:44:32;23.70;1.00
22532;DHT22;11432;46.924;7.114;2023-07-28T07:47:00;23.60;1.00
22532;DHT22;11432;46.924;7.114;2023-07-28T07:49:26;23.60;1.00
22532;DHT22;11432;46.924;7.114;2023-07-28T07:51:52;23.60;1.00
22532;DHT22;11432;46.924;7.114;2023-07-28T07:54:17;23.60;1.00
22532;DHT22;11432;46.924;7.114;2023-07-28T07:56:44;23.60;1.00
22532;DHT22;11432;46.924;7.114;2023-07-28T07:59:10;23.90;1.00
22532;DHT22;11432;46.924;7.114;2023-07-28T08:01:36;24.20;1.00
22532;DHT22;11432;46.924;7.114;2023-07-28T08:04:02;24.50;1.00
22532;DHT22;11432;46.924;7.114;2023-07-28T08:06:27;24.50;1.00
22532;DHT22;11432;46.924;7.114;2023-07-28T08:08:54;24.30;1.00
22532;DHT22;11432;46.924;7.114;2023-07-28T08:11:22;24.30;1.00
22532;DHT22;11432;46.924;7.114;2023-07-28T08:13:47;24.50;1.00
22532;DHT22;11432;46.924;7.114;2023-07-28T08:16:14;24.50;1.00
22532;DHT22;11432;46.924;7.114;2023-07-28T08:18:39;24.50;1.00
22532;DHT22;11432;46.924;7.114;2023-07-28T08:21:05;24.50;1.00
22532;DHT22;11432;46.924;7.114;2023-07-28T08:23:30;24.50;1.00
22532;DHT22;11432;46.924;7.114;2023-07-28T08:25:56;24.80;1.00
22532;DHT22;11432;46.924;7.114;2023-07-28T08:28:22;25.00;1.00
22532;DHT22;11432;46.924;7.114;2023-07-28T08:30:56;25.00;1.00
22532;DHT22;11432;46.924;7.114;2023-07-28T08:33:23;25.30;1.00
22532;DHT22;11432;46.924;7.114;2023-07-28T08:35:49;25.50;99.90
22532;DHT22;11432;46.924;7.114;2023-07-28T08:38:14;25.60;99.90
22532;DHT22;11432;46.924;7.114;2023-07-28T08:40:40;25.60;1.00
22532;DHT22;11432;46.924;7.114;2023-07-28T08:43:05;25.60;1.00
22532;DHT22;11432;46.924;7.114;2023-07-28T08:45:31;25.60;1.00
22532;DHT22;11432;46.924;7.114;2023-07-28T08:47:58;25.60;1.00
22532;DHT22;11432;46.924;7.114;2023-07-28T08:50:23;25.50;1.00
22532;DHT22;11432;46.924;7.114;2023-07-28T08:52:49;25.50;1.00
22532;DHT22;11432;46.924;7.114;2023-07-28T08:55:16;25.60;1.00
22532;DHT22;11432;46.924;7.114;2023-07-28T08:57:42;25.80;1.00
22532;DHT22;11432;46.924;7.114;2023-07-28T09:00:11;25.70;1.00
22532;DHT22;11432;46.924;7.114;2023-07-28T09:02:40;25.50;99.90
22532;DHT22;11432;46.924;7.114;2023-07-28T09:05:06;25.40;99.90
22532;DHT22;11432;46.924;7.114;2023-07-28T09:07:35;25.50;99.90
22532;DHT22;11432;46.924;7.114;2023-07-28T09:10:04;25.60;99.90
22532;DHT22;11432;46.924;7.114;2023-07-28T09:12:33;25.60;99.90
22532;DHT22;11432;46.924;7.114;2023-07-28T09:14:59;25.80;99.90
22532;DHT22;11432;46.924;7.114;2023-07-28T09:17:24;25.80;99.90
22532;DHT22;11432;46.924;7.114;2023-07-28T09:19:54;25.80;99.90
22532;DHT22;11432;46.924;7.114;2023-07-28T09:22:20;25.90;99.90
22532;DHT22;11432;46.924;7.114;2023-07-28T09:24:47;25.90;99.90
22532;DHT22;11432;46.924;7.114;2023-07-28T09:27:24;25.90;99.90
22532;DHT22;11432;46.924;7.114;2023-07-28T09:29:52;26.10;99.90
22532;DHT22;11432;46.924;7.114;2023-07-28T09:32:32;26.30;99.90
22532;DHT22;11432;46.924;7.114;2023-07-28T09:35:12;26.20;99.90
22532;DHT22;11432;46.924;7.114;2023-07-28T09:37:43;26.40;99.90
22532;DHT22;11432;46.924;7.114;2023-07-28T09:40:10;26.40;99.90
22532;DHT22;11432;46.924;7.114;2023-07-28T09:42:43;26.50;99.90
22532;DHT22;11432;46.924;7.114;2023-07-28T09:45:10;26.40;99.90
22532;DHT22;11432;46.924;7.114;2023-07-28T09:47:37;26.50;99.90
22532;DHT22;11432;46.924;7.114;2023-07-28T09:50:04;26.50;99.90
22532;DHT22;11432;46.924;7.114;2023-07-28T09:52:34;26.50;99.90
22532;DHT22;11432;46.924;7.114;2023-07-28T09:55:07;26.30;99.90
22532;DHT22;11432;46.924;7.114;2023-07-28T09:57:39;26.40;1.00
22532;DHT22;11432;46.924;7.114;2023-07-28T10:00:07;26.30;17.40
22532;DHT22;11432;46.924;7.114;2023-07-28T10:02:34;26.30;70.90
22532;DHT22;11432;46.924;7.114;2023-07-28T10:05:01;26.60;11.80
22532;DHT22;11432;46.924;7.114;2023-07-28T10:07:28;26.40;1.00
22532;DHT22;11432;46.924;7.114;2023-07-28T10:09:54;26.40;99.90
22532;DHT22;11432;46.924;7.114;2023-07-28T10:12:24;26.30;99.90
22532;DHT22;11432;46.924;7.114;2023-07-28T10:15:00;26.20;99.90
22532;DHT22;11432;46.924;7.114;2023-07-28T10:17:34;26.10;99.90
22532;DHT22;11432;46.924;7.114;2023-07-28T10:20:06;26.00;99.90
22532;DHT22;11432;46.924;7.114;2023-07-28T10:22:43;26.10;99.90
22532;DHT22;11432;46.924;7.114;2023-07-28T10:25:10;26.30;99.90
22532;DHT22;11432;46.924;7.114;2023-07-28T10:27:45;26.60;99.90
22532;DHT22;11432;46.924;7.114;2023-07-28T10:30:12;26.50;99.90
22532;DHT22;11432;46.924;7.114;2023-07-28T10:32:43;26.50;99.90
22532;DHT22;11432;46.924;7.114;2023-07-28T10:37:37;26.70;99.90
22532;DHT22;11432;46.924;7.114;2023-07-28T10:40:32;27.10;99.90
22532;DHT22;11432;46.924;7.114;2023-07-28T10:43:01;27.50;99.90
22532;DHT22;11432;46.924;7.114;2023-07-28T10:45:28;27.40;1.00
22532;DHT22;11432;46.924;7.114;2023-07-28T10:47:55;27.50;1.00
22532;DHT22;11432;46.924;7.114;2023-07-28T10:50:22;27.10;1.00
22532;DHT22;11432;46.924;7.114;2023-07-28T10:52:48;27.30;1.00
22532;DHT22;11432;46.924;7.114;2023-07-28T10:55:14;27.40;1.00
22532;DHT22;11432;46.924;7.114;2023-07-28T10:57:44;27.50;1.00
22532;DHT22;11432;46.924;7.114;2023-07-28T11:00:17;27.50;1.00
22532;DHT22;11432;46.924;7.114;2023-07-28T11:02:51;27.50;1.00
22532;DHT22;11432;46.924;7.114;2023-07-28T11:05:25;27.10;62.90
22532;DHT22;11432;46.924;7.114;2023-07-28T11:07:58;27.10;1.00
22532;DHT22;11432;46.924;7.114;2023-07-28T11:10:25;27.00;24.90
22532;DHT22;11432;46.924;7.114;2023-07-28T11:12:53;27.10;5.90
22532;DHT22;11432;46.924;7.114;2023-07-28T11:15:19;27.20;1.00
22532;DHT22;11432;46.924;7.114;2023-07-28T11:17:50;27.00;1.00
22532;DHT22;11432;46.924;7.114;2023-07-28T11:22:46;26.90;99.90
22532;DHT22;11432;46.924;7.114;2023-07-28T11:25:12;27.00;1.00
22532;DHT22;11432;46.924;7.114;2023-07-28T11:27:39;27.20;1.00
22532;DHT22;11432;46.924;7.114;2023-07-28T11:30:07;27.40;1.00
22532;DHT22;11432;46.924;7.114;2023-07-28T11:32:35;27.40;1.00
22532;DHT22;11432;46.924;7.114;2023-07-28T11:35:08;27.60;1.00
22532;DHT22;11432;46.924;7.114;2023-07-28T11:37:36;27.50;1.00
22532;DHT22;11432;46.924;7.114;2023-07-28T11:40:03;27.40;1.00
22532;DHT22;11432;46.924;7.114;2023-07-28T11:42:33;27.70;1.00
22532;DHT22;11432;46.924;7.114;2023-07-28T11:45:00;28.10;1.00
22532;DHT22;11432;46.924;7.114;2023-07-28T11:47:25;28.20;1.00
22532;DHT22;11432;46.924;7.114;2023-07-28T11:49:51;28.40;1.00
22532;DHT22;11432;46.924;7.114;2023-07-28T11:52:17;28.50;1.00
22532;DHT22;11432;46.924;7.114;2023-07-28T11:54:44;28.50;1.00
22532;DHT22;11432;46.924;7.114;2023-07-28T11:57:10;28.40;1.00
22532;DHT22;11432;46.924;7.114;2023-07-28T11:59:35;28.60;1.00
22532;DHT22;11432;46.924;7.114;2023-07-28T12:02:03;28.60;1.00
22532;DHT22;11432;46.924;7.114;2023-07-28T12:04:39;28.60;1.00
22532;DHT22;11432;46.924;7.114;2023-07-28T12:07:15;28.60;1.00
22532;DHT22;11432;46.924;7.114;2023-07-28T12:12:20;29.20;1.00
22532;DHT22;11432;46.924;7.114;2023-07-28T12:14:47;29.20;1.00
22532;DHT22;11432;46.924;7.114;2023-07-28T12:17:14;29.40;1.00
22532;DHT22;11432;46.924;7.114;2023-07-28T12:22:28;30.30;1.00
22532;DHT22;11432;46.924;7.114;2023-07-28T12:24:54;29.90;99.90
22532;DHT22;11432;46.924;7.114;2023-07-28T12:27:20;30.00;99.90
22532;DHT22;11432;46.924;7.114;2023-07-28T12:29:49;29.60;99.90
22532;DHT22;11432;46.924;7.114;2023-07-28T12:32:15;29.40;99.90
22532;DHT22;11432;46.924;7.114;2023-07-28T12:34:40;29.10;99.90
22532;DHT22;11432;46.924;7.114;2023-07-28T12:37:06;29.30;99.90
22532;DHT22;11432;46.924;7.114;2023-07-28T12:39:32;29.60;99.90
22532;DHT22;11432;46.924;7.114;2023-07-28T12:41:58;30.40;99.90
22532;DHT22;11432;46.924;7.114;2023-07-28T12:44:24;30.20;99.90
22532;DHT22;11432;46.924;7.114;2023-07-28T12:46:49;29.80;99.90
22532;DHT22;11432;46.924;7.114;2023-07-28T12:49:15;29.30;99.90
22532;DHT22;11432;46.924;7.114;2023-07-28T12:51:41;29.10;99.90
22532;DHT22;11432;46.924;7.114;2023-07-28T12:54:07;28.70;99.90
22532;DHT22;11432;46.924;7.114;2023-07-28T12:56:32;28.90;99.90
22532;DHT22;11432;46.924;7.114;2023-07-28T12:58:58;29.50;99.90
22532;DHT22;11432;46.924;7.114;2023-07-28T13:01:24;29.40;99.90
22532;DHT22;11432;46.924;7.114;2023-07-28T13:03:49;29.40;99.90
22532;DHT22;11432;46.924;7.114;2023-07-28T13:06:15;29.00;1.00
22532;DHT22;11432;46.924;7.114;2023-07-28T13:08:41;29.20;1.00
22532;DHT22;11432;46.924;7.114;2023-07-28T13:11:06;29.20;99.90
22532;DHT22;11432;46.924;7.114;2023-07-28T13:13:32;29.00;99.90
22532;DHT22;11432;46.924;7.114;2023-07-28T13:15:58;29.40;99.90
22532;DHT22;11432;46.924;7.114;2023-07-28T13:18:24;29.30;99.90
22532;DHT22;11432;46.924;7.114;2023-07-28T13:20:51;29.10;99.90
22532;DHT22;11432;46.924;7.114;2023-07-28T13:23:17;29.30;99.90
22532;DHT22;11432;46.924;7.114;2023-07-28T13:25:42;29.20;99.90
22532;DHT22;11432;46.924;7.114;2023-07-28T13:28:08;29.70;1.00
22532;DHT22;11432;46.924;7.114;2023-07-28T13:30:33;29.00;99.90
22532;DHT22;11432;46.924;7.114;2023-07-28T13:32:59;29.20;99.90
22532;DHT22;11432;46.924;7.114;2023-07-28T13:35:26;29.70;99.90
22532;DHT22;11432;46.924;7.114;2023-07-28T13:37:51;29.70;99.90
22532;DHT22;11432;46.924;7.114;2023-07-28T13:40:17;29.10;99.90
22532;DHT22;11432;46.924;7.114;2023-07-28T13:42:42;29.80;99.90
22532;DHT22;11432;46.924;7.114;2023-07-28T13:45:09;31.10;99.90
22532;DHT22;11432;46.924;7.114;2023-07-28T13:47:34;31.40;99.90
22532;DHT22;11432;46.924;7.114;2023-07-28T13:50:00;30.00;99.90
22532;DHT22;11432;46.924;7.114;2023-07-28T13:52:26;28.80;99.90
22532;DHT22;11432;46.924;7.114;2023-07-28T13:54:52;28.10;99.90
22532;DHT22;11432;46.924;7.114;2023-07-28T13:57:18;27.70;99.90
22532;DHT22;11432;46.924;7.114;2023-07-28T13:59:43;27.80;99.90
22532;DHT22;11432;46.924;7.114;2023-07-28T14:02:09;27.70;99.90
22532;DHT22;11432;46.924;7.114;2023-07-28T14:04:35;27.80;99.90
22532;DHT22;11432;46.924;7.114;2023-07-28T14:07:00;28.50;99.90
22532;DHT22;11432;46.924;7.114;2023-07-28T14:09:26;28.50;99.90
22532;DHT22;11432;46.924;7.114;2023-07-28T14:11:52;28.00;99.90
22532;DHT22;11432;46.924;7.114;2023-07-28T14:14:17;28.10;99.90
22532;DHT22;11432;46.924;7.114;2023-07-28T14:16:43;28.70;99.90
22532;DHT22;11432;46.924;7.114;2023-07-28T14:19:08;28.40;99.90
22532;DHT22;11432;46.924;7.114;2023-07-28T14:21:34;28.10;99.90
22532;DHT22;11432;46.924;7.114;2023-07-28T14:24:00;27.80;99.90
22532;DHT22;11432;46.924;7.114;2023-07-28T14:26:25;27.60;99.90
22532;DHT22;11432;46.924;7.114;2023-07-28T14:28:51;27.40;99.90
22532;DHT22;11432;46.924;7.114;2023-07-28T14:31:17;27.10;99.90
22532;DHT22;11432;46.924;7.114;2023-07-28T14:33:43;26.80;99.90
22532;DHT22;11432;46.924;7.114;2023-07-28T14:36:08;26.70;99.90
22532;DHT22;11432;46.924;7.114;2023-07-28T14:38:34;26.80;99.90
22532;DHT22;11432;46.924;7.114;2023-07-28T14:41:00;26.80;99.90
22532;DHT22;11432;46.924;7.114;2023-07-28T14:43:25;27.10;99.90
22532;DHT22;11432;46.924;7.114;2023-07-28T14:45:51;27.20;1.00
22532;DHT22;11432;46.924;7.114;2023-07-28T14:48:17;27.50;1.00
22532;DHT22;11432;46.924;7.114;2023-07-28T14:50:42;28.00;1.00
22532;DHT22;11432;46.924;7.114;2023-07-28T14:53:31;28.00;1.00
22532;DHT22;11432;46.924;7.114;2023-07-28T14:55:57;27.80;99.90
22532;DHT22;11432;46.924;7.114;2023-07-28T14:58:23;27.30;1.00
22532;DHT22;11432;46.924;7.114;2023-07-28T15:00:49;26.70;1.00
22532;DHT22;11432;46.924;7.114;2023-07-28T15:03:14;26.50;99.90
22532;DHT22;11432;46.924;7.114;2023-07-28T15:05:41;26.20;1.00
22532;DHT22;11432;46.924;7.114;2023-07-28T15:08:06;26.10;1.00
22532;DHT22;11432;46.924;7.114;2023-07-28T15:10:32;25.90;1.00
22532;DHT22;11432;46.924;7.114;2023-07-28T15:12:57;25.70;99.90
22532;DHT22;11432;46.924;7.114;2023-07-28T15:15:23;25.40;1.00
22532;DHT22;11432;46.924;7.114;2023-07-28T15:17:49;25.40;99.90
22532;DHT22;11432;46.924;7.114;2023-07-28T15:20:14;25.30;1.00
22532;DHT22;11432;46.924;7.114;2023-07-28T15:22:45;25.50;99.90
22532;DHT22;11432;46.924;7.114;2023-07-28T15:25:10;26.00;99.90
22532;DHT22;11432;46.924;7.114;2023-07-28T15:27:36;26.20;1.00
22532;DHT22;11432;46.924;7.114;2023-07-28T15:30:02;26.40;1.00
22532;DHT22;11432;46.924;7.114;2023-07-28T15:32:28;26.30;99.90
22532;DHT22;11432;46.924;7.114;2023-07-28T15:34:53;26.20;1.00
22532;DHT22;11432;46.924;7.114;2023-07-28T15:37:19;26.10;1.00
22532;DHT22;11432;46.924;7.114;2023-07-28T15:39:44;26.10;99.90
22532;DHT22;11432;46.924;7.114;2023-07-28T15:42:10;26.20;1.00
22532;DHT22;11432;46.924;7.114;2023-07-28T15:44:36;26.10;99.90
22532;DHT22;11432;46.924;7.114;2023-07-28T15:47:01;26.00;99.90